createdAt,value
2019-02-17T00:01:03.330Z,9.00
2019-02-17T00:03:33.273Z,9.00
2019-02-17T00:06:03.264Z,9.00
2019-02-17T00:08:32.908Z,9.00
2019-02-17T00:11:02.723Z,9.10
2019-02-17T00:13:33.313Z,9.00
2019-02-17T00:16:02.995Z,9.00
2019-02-17T00:18:32.603Z,9.10
2019-02-17T00:21:02.219Z,9.10
2019-02-17T00:23:32.085Z,9.20
2019-02-17T00:26:01.786Z,9.20
2019-02-17T00:28:31.409Z,9.30
2019-02-17T00:31:01.110Z,9.30
2019-02-17T00:33:30.805Z,9.30
2019-02-17T00:36:00.969Z,9.30
2019-02-17T00:38:31.098Z,9.30
2019-02-17T00:41:00.724Z,9.40
2019-02-17T00:43:30.526Z,9.50
2019-02-17T00:46:00.144Z,9.50
2019-02-17T00:48:30.394Z,9.50
2019-02-17T00:51:00.001Z,9.50
2019-02-17T00:53:29.921Z,9.70
2019-02-17T00:55:59.800Z,9.80
2019-02-17T00:58:29.490Z,9.80
2019-02-17T01:00:59.422Z,9.90
2019-02-17T01:03:29.827Z,10.00
2019-02-17T01:05:59.733Z,10.00
2019-02-17T01:08:29.691Z,10.00
2019-02-17T01:10:59.319Z,10.10
2019-02-17T01:13:28.946Z,10.10
2019-02-17T01:15:58.597Z,10.10
2019-02-17T01:18:28.352Z,10.10
2019-02-17T01:20:58.059Z,10.20
2019-02-17T01:23:27.669Z,10.20
2019-02-17T01:25:57.382Z,10.20
2019-02-17T01:28:27.001Z,10.20
2019-02-17T01:30:56.652Z,10.20
2019-02-17T01:33:26.765Z,10.20
2019-02-17T01:35:56.770Z,10.30
2019-02-17T01:38:26.386Z,10.30
2019-02-17T01:40:56.277Z,10.40
2019-02-17T01:43:26.202Z,10.40
2019-02-17T01:45:55.840Z,10.40
2019-02-17T01:48:25.459Z,10.50
2019-02-17T01:50:55.178Z,10.50
2019-02-17T01:53:25.129Z,10.50
2019-02-17T01:55:54.759Z,10.50
2019-02-17T01:58:24.368Z,10.50
2019-02-17T02:00:54.417Z,10.50
2019-02-17T02:03:24.078Z,10.50
2019-02-17T02:05:54.187Z,10.50
2019-02-17T02:08:23.797Z,10.60
2019-02-17T02:10:53.841Z,10.50
2019-02-17T02:13:23.736Z,10.50
2019-02-17T02:15:53.426Z,10.60
2019-02-17T02:18:23.062Z,10.60
2019-02-17T02:20:52.989Z,10.60
2019-02-17T02:23:22.609Z,10.60
2019-02-17T02:25:52.242Z,10.60
2019-02-17T02:28:22.218Z,10.60
2019-02-17T02:30:51.849Z,10.60
2019-02-17T02:33:21.478Z,10.60
2019-02-17T02:35:51.327Z,10.60
2019-02-17T02:38:21.314Z,10.60
2019-02-17T02:40:50.953Z,10.50
2019-02-17T02:43:20.662Z,10.60
2019-02-17T02:45:50.693Z,10.60
2019-02-17T02:48:21.272Z,10.60
2019-02-17T02:50:53.068Z,10.60
2019-02-17T02:53:22.318Z,10.60
2019-02-17T02:55:52.023Z,10.60
2019-02-17T02:58:21.640Z,10.60
2019-02-17T03:00:51.537Z,10.60
2019-02-17T03:03:21.445Z,10.60
2019-02-17T03:06:02.838Z,10.60
2019-02-17T03:08:32.527Z,10.60
2019-02-17T03:11:02.227Z,10.60
2019-02-17T03:13:32.293Z,10.60
2019-02-17T03:16:01.949Z,10.60
2019-02-17T03:18:31.578Z,10.60
2019-02-17T03:21:01.186Z,10.60
2019-02-17T03:23:31.061Z,10.70
2019-02-17T03:26:00.695Z,10.70
2019-02-17T03:28:30.496Z,10.70
2019-02-17T03:31:00.134Z,10.70
2019-02-17T03:33:30.069Z,10.70
2019-02-17T03:35:59.799Z,10.70
2019-02-17T03:38:29.421Z,10.80
2019-02-17T03:40:59.700Z,10.80
2019-02-17T03:43:29.388Z,10.80
2019-02-17T03:45:59.357Z,10.70
2019-02-17T03:48:29.858Z,10.60
2019-02-17T03:50:59.481Z,10.60
2019-02-17T03:53:29.392Z,10.50
2019-02-17T03:55:59.257Z,10.40
2019-02-17T03:58:28.889Z,10.30
2019-02-17T04:00:58.578Z,10.30
2019-02-17T04:03:28.224Z,10.20
2019-02-17T04:05:57.983Z,10.10
2019-02-17T04:08:27.614Z,10.10
2019-02-17T04:10:57.300Z,10.10
2019-02-17T04:13:26.951Z,10.00
2019-02-17T04:15:56.649Z,10.00
2019-02-17T04:18:26.342Z,10.00
2019-02-17T04:20:56.293Z,9.90
2019-02-17T04:23:31.226Z,9.80
2019-02-17T04:25:57.240Z,9.80
2019-02-17T04:28:26.871Z,9.80
2019-02-17T04:30:56.497Z,9.80
2019-02-17T04:33:26.188Z,9.70
2019-02-17T04:35:55.866Z,9.70
2019-02-17T04:38:25.602Z,9.70
2019-02-17T04:40:55.408Z,9.60
2019-02-17T04:43:25.016Z,9.60
2019-02-17T04:45:54.629Z,9.60
2019-02-17T04:48:24.261Z,9.60
2019-02-17T04:50:54.019Z,9.50
2019-02-17T04:53:23.913Z,9.50
2019-02-17T04:55:53.549Z,9.50
2019-02-17T04:58:23.157Z,9.50
2019-02-17T05:00:53.104Z,9.50
2019-02-17T05:03:22.729Z,9.40
2019-02-17T05:05:52.352Z,9.40
2019-02-17T05:08:22.275Z,9.40
2019-02-17T05:10:51.905Z,9.30
2019-02-17T05:13:21.521Z,9.30
2019-02-17T05:15:51.131Z,9.30
2019-02-17T05:18:20.762Z,9.40
2019-02-17T05:20:50.649Z,9.40
2019-02-17T05:23:20.580Z,9.50
2019-02-17T05:25:50.281Z,9.50
2019-02-17T05:28:19.914Z,9.50
2019-02-17T05:30:52.915Z,9.50
2019-02-17T05:33:21.125Z,9.40
2019-02-17T05:35:50.725Z,9.50
2019-02-17T05:38:20.445Z,9.40
2019-02-17T05:40:50.071Z,9.40
2019-02-17T05:43:19.745Z,9.40
2019-02-17T05:45:49.367Z,9.30
2019-02-17T05:48:19.854Z,9.30
2019-02-17T05:50:49.746Z,9.30
2019-02-17T05:53:19.652Z,9.30
2019-02-17T05:55:49.449Z,9.30
2019-02-17T05:58:19.070Z,9.20
2019-02-17T06:00:48.966Z,9.20
2019-02-17T06:03:18.588Z,9.10
2019-02-17T06:05:48.222Z,9.10
2019-02-17T06:08:17.852Z,9.10
2019-02-17T06:10:47.706Z,9.10
2019-02-17T06:13:17.622Z,9.00
2019-02-17T06:15:47.538Z,9.00
2019-02-17T06:18:17.434Z,9.00
2019-02-17T06:20:47.353Z,9.00
2019-02-17T06:23:17.465Z,8.90
2019-02-17T06:25:50.492Z,8.80
2019-02-17T06:28:20.849Z,8.80
2019-02-17T06:30:50.861Z,8.80
2019-02-17T06:33:20.806Z,8.80
2019-02-17T06:35:50.446Z,8.70
2019-02-17T06:38:20.376Z,8.70
2019-02-17T06:40:50.026Z,8.70
2019-02-17T06:43:20.269Z,8.70
2019-02-17T06:45:50.173Z,8.70
2019-02-17T06:48:20.721Z,8.60
2019-02-17T06:50:50.382Z,8.70
2019-02-17T06:53:19.991Z,8.60
2019-02-17T06:56:03.314Z,8.60
2019-02-17T06:58:33.467Z,8.60
2019-02-17T07:01:03.321Z,8.60
2019-02-17T07:03:32.935Z,8.60
2019-02-17T07:06:16.419Z,8.50
2019-02-17T07:08:46.019Z,8.50
2019-02-17T07:11:15.662Z,8.50
2019-02-17T07:13:45.279Z,8.50
2019-02-17T07:16:15.174Z,8.50
2019-02-17T07:18:44.792Z,8.50
2019-02-17T07:21:14.423Z,8.50
2019-02-17T07:23:44.036Z,8.50
2019-02-17T07:26:13.660Z,8.60
2019-02-17T07:28:44.550Z,8.60
2019-02-17T07:31:15.229Z,8.60
2019-02-17T07:33:45.248Z,8.60
2019-02-17T07:36:15.239Z,8.60
2019-02-17T07:38:44.869Z,8.60
2019-02-17T07:41:14.753Z,8.70
2019-02-17T07:43:44.364Z,8.70
2019-02-17T07:46:14.346Z,8.80
2019-02-17T07:48:43.978Z,8.80
2019-02-17T07:51:14.660Z,8.80
2019-02-17T07:53:44.527Z,8.80
2019-02-17T07:56:14.570Z,8.80
2019-02-17T07:58:44.197Z,8.80
2019-02-17T08:01:14.058Z,8.80
2019-02-17T08:03:43.673Z,8.80
2019-02-17T08:06:13.296Z,8.90
2019-02-17T08:08:42.901Z,8.90
2019-02-17T08:11:12.635Z,8.90
2019-02-17T08:13:42.248Z,9.00
2019-02-17T08:16:11.878Z,9.00
2019-02-17T08:18:41.484Z,9.10
2019-02-17T08:21:11.161Z,9.10
2019-02-17T08:23:40.776Z,9.10
2019-02-17T08:26:10.748Z,9.20
2019-02-17T08:28:42.597Z,9.20
2019-02-17T08:31:11.904Z,9.30
2019-02-17T08:33:41.810Z,9.40
2019-02-17T08:36:11.433Z,9.50
2019-02-17T08:38:41.051Z,9.60
2019-02-17T08:41:10.686Z,9.70
2019-02-17T08:43:40.301Z,9.80
2019-02-17T08:46:10.174Z,9.80
2019-02-17T08:48:39.809Z,9.90
2019-02-17T08:51:09.485Z,10.00
2019-02-17T08:53:39.379Z,10.00
2019-02-17T08:56:09.017Z,10.10
2019-02-17T08:58:38.629Z,10.10
2019-02-17T09:01:08.281Z,10.10
2019-02-17T09:03:37.903Z,10.10
2019-02-17T09:06:07.560Z,10.10
2019-02-17T09:08:37.181Z,10.00
2019-02-17T09:11:07.164Z,10.00
2019-02-17T09:13:37.029Z,9.90
2019-02-17T09:16:06.657Z,10.10
2019-02-17T09:18:36.398Z,10.20
2019-02-17T09:21:06.030Z,10.40
2019-02-17T09:23:35.632Z,10.50
2019-02-17T09:26:05.621Z,10.70
2019-02-17T09:28:35.236Z,10.90
2019-02-17T09:31:04.860Z,11.00
2019-02-17T09:33:34.489Z,11.10
2019-02-17T09:36:04.208Z,11.30
2019-02-17T09:38:34.140Z,11.40
2019-02-17T09:41:03.841Z,11.50
2019-02-17T09:43:33.784Z,11.70
2019-02-17T09:46:03.409Z,11.80
2019-02-17T09:48:33.492Z,12.00
2019-02-17T09:51:03.286Z,12.10
2019-02-17T09:53:33.195Z,12.00
2019-02-17T09:56:03.021Z,11.90
2019-02-17T09:58:32.662Z,11.90
2019-02-17T10:01:02.433Z,12.10
2019-02-17T10:03:32.057Z,12.10
2019-02-17T10:06:01.676Z,12.20
2019-02-17T10:08:31.405Z,12.30
2019-02-17T10:11:01.026Z,12.40
2019-02-17T10:13:30.690Z,12.20
2019-02-17T10:16:00.386Z,12.20
2019-02-17T10:18:30.678Z,12.30
2019-02-17T10:21:00.313Z,12.50
2019-02-17T10:23:29.942Z,12.70
2019-02-17T10:26:00.162Z,13.00
2019-02-17T10:28:30.437Z,13.10
2019-02-17T10:31:00.332Z,13.20
2019-02-17T10:33:30.285Z,13.30
2019-02-17T10:36:00.210Z,13.40
2019-02-17T10:38:30.146Z,13.50
2019-02-17T10:41:00.070Z,13.50
2019-02-17T10:43:30.154Z,13.60
2019-02-17T10:45:59.789Z,13.60
2019-02-17T10:48:29.995Z,13.60
2019-02-17T10:50:59.612Z,13.70
2019-02-17T10:53:29.238Z,13.70
2019-02-17T10:55:58.929Z,13.70
2019-02-17T10:58:29.112Z,13.70
2019-02-17T11:00:58.728Z,13.70
2019-02-17T11:03:28.361Z,13.70
2019-02-17T11:05:57.982Z,13.60
2019-02-17T11:08:27.596Z,13.70
2019-02-17T11:10:57.477Z,13.70
2019-02-17T11:13:27.432Z,13.80
2019-02-17T11:15:57.313Z,13.80
2019-02-17T11:18:26.948Z,13.80
2019-02-17T11:20:56.578Z,13.80
2019-02-17T11:23:26.212Z,13.90
2019-02-17T11:25:55.851Z,13.90
2019-02-17T11:28:25.549Z,13.90
2019-02-17T11:30:55.178Z,13.90
2019-02-17T11:33:25.119Z,13.90
2019-02-17T11:35:54.734Z,13.90
2019-02-17T11:38:24.443Z,13.90
2019-02-17T11:40:55.118Z,13.90
2019-02-17T11:43:24.753Z,13.90
2019-02-17T11:45:54.373Z,13.80
2019-02-17T11:48:24.059Z,13.80
2019-02-17T11:50:54.138Z,13.80
2019-02-17T11:53:23.769Z,13.80
2019-02-17T11:55:53.652Z,13.90
2019-02-17T11:58:23.375Z,13.90
2019-02-17T12:00:53.391Z,14.00
2019-02-17T12:03:23.030Z,14.10
2019-02-17T12:05:52.655Z,14.10
2019-02-17T12:08:22.278Z,14.10
2019-02-17T12:10:51.986Z,14.10
2019-02-17T12:13:21.619Z,14.20
2019-02-17T12:15:51.242Z,14.20
2019-02-17T12:18:20.946Z,14.20
2019-02-17T12:21:06.133Z,14.20
2019-02-17T12:23:45.233Z,14.20
2019-02-17T12:26:21.533Z,14.10
2019-02-17T12:29:13.601Z,14.20
2019-02-17T12:31:43.667Z,14.20
2019-02-17T12:34:13.298Z,14.30
2019-02-17T12:36:43.061Z,14.30
2019-02-17T12:39:15.131Z,14.30
2019-02-17T12:41:44.433Z,14.30
2019-02-17T12:44:14.073Z,14.40
2019-02-17T12:46:43.689Z,14.30
2019-02-17T12:49:13.377Z,14.30
2019-02-17T12:51:43.356Z,14.30
2019-02-17T12:54:13.221Z,14.30
2019-02-17T12:56:42.868Z,14.30
2019-02-17T12:59:12.541Z,14.30
2019-02-17T13:01:42.161Z,14.30
2019-02-17T13:04:11.862Z,14.40
2019-02-17T13:06:41.486Z,14.40
2019-02-17T13:09:11.126Z,14.40
2019-02-17T13:11:40.751Z,14.40
2019-02-17T13:14:10.389Z,14.50
2019-02-17T13:16:40.015Z,14.50
2019-02-17T13:19:09.639Z,14.40
2019-02-17T13:21:39.260Z,14.50
2019-02-17T13:24:09.229Z,14.50
2019-02-17T13:26:39.456Z,14.60
2019-02-17T13:29:09.071Z,14.60
2019-02-17T13:31:38.695Z,14.60
2019-02-17T13:34:08.720Z,14.60
2019-02-17T13:36:38.429Z,14.60
2019-02-17T13:39:08.205Z,14.60
2019-02-17T13:41:38.017Z,14.60
2019-02-17T13:44:07.726Z,14.60
2019-02-17T13:46:37.850Z,14.60
2019-02-17T13:49:07.486Z,14.60
2019-02-17T13:51:37.108Z,14.60
2019-02-17T13:54:06.781Z,14.60
2019-02-17T13:56:37.028Z,14.60
2019-02-17T13:59:06.704Z,14.60
2019-02-17T14:01:36.387Z,14.60
2019-02-17T14:04:06.590Z,14.70
2019-02-17T14:06:36.293Z,14.60
2019-02-17T14:09:07.728Z,14.60
2019-02-17T14:11:37.600Z,14.60
2019-02-17T14:14:07.318Z,14.60
2019-02-17T14:16:36.986Z,14.50
2019-02-17T14:19:06.877Z,14.50
2019-02-17T14:21:36.776Z,14.40
2019-02-17T14:24:06.719Z,14.40
2019-02-17T14:26:36.417Z,14.40
2019-02-17T14:29:06.034Z,14.30
2019-02-17T14:31:35.709Z,14.30
2019-02-17T14:34:05.405Z,14.60
2019-02-17T14:36:35.149Z,14.40
2019-02-17T14:39:06.250Z,14.30
2019-02-17T14:41:37.788Z,14.20
2019-02-17T14:44:07.696Z,14.10
2019-02-17T14:46:37.755Z,14.10
2019-02-17T14:49:07.502Z,14.10
2019-02-17T14:51:37.375Z,14.00
2019-02-17T14:54:07.060Z,14.00
2019-02-17T14:56:36.688Z,14.00
2019-02-17T14:59:06.354Z,14.00
2019-02-17T15:01:36.613Z,13.90
2019-02-17T15:04:08.834Z,13.90
2019-02-17T15:06:37.882Z,14.00
2019-02-17T15:09:08.321Z,14.00
2019-02-17T15:11:39.640Z,13.90
2019-02-17T15:14:09.293Z,13.90
2019-02-17T15:16:39.059Z,13.90
2019-02-17T15:19:08.712Z,14.00
2019-02-17T15:21:38.389Z,13.90
2019-02-17T15:24:08.197Z,13.90
2019-02-17T15:26:38.221Z,13.80
2019-02-17T15:29:08.161Z,13.80
2019-02-17T15:31:38.025Z,13.70
2019-02-17T15:34:07.841Z,13.60
2019-02-17T15:36:37.753Z,13.60
2019-02-17T15:39:07.993Z,13.50
2019-02-17T15:41:38.001Z,13.40
2019-02-17T15:44:07.697Z,13.30
2019-02-17T15:46:37.336Z,13.30
2019-02-17T15:49:06.952Z,13.20
2019-02-17T15:51:36.889Z,13.10
2019-02-17T15:54:06.613Z,13.00
2019-02-17T15:56:36.590Z,13.10
2019-02-17T15:59:06.210Z,13.00
2019-02-17T16:01:35.841Z,12.90
2019-02-17T16:04:05.553Z,12.80
2019-02-17T16:06:35.521Z,12.70
2019-02-17T16:09:06.683Z,12.60
2019-02-17T16:11:37.034Z,12.60
2019-02-17T16:14:06.770Z,12.50
2019-02-17T16:16:36.998Z,12.50
2019-02-17T16:19:06.620Z,12.60
2019-02-17T16:21:37.606Z,12.50
2019-02-17T16:24:07.261Z,12.40
2019-02-17T16:26:36.876Z,12.40
2019-02-17T16:29:06.751Z,12.30
2019-02-17T16:31:37.677Z,12.20
2019-02-17T16:34:07.329Z,12.20
2019-02-17T16:36:36.952Z,12.10
2019-02-17T16:39:12.295Z,12.10
2019-02-17T16:41:42.005Z,12.00
2019-02-17T16:44:11.628Z,11.90
2019-02-17T16:46:41.508Z,11.80
2019-02-17T16:49:12.488Z,11.80
2019-02-17T16:51:42.596Z,11.70
2019-02-17T16:54:12.472Z,11.60
2019-02-17T16:56:42.385Z,11.50
2019-02-17T16:59:12.082Z,11.40
2019-02-17T17:01:41.874Z,11.40
2019-02-17T17:04:11.545Z,11.30
2019-02-17T17:06:41.534Z,11.20
2019-02-17T17:09:11.596Z,11.10
2019-02-17T17:11:41.794Z,11.10
2019-02-17T17:14:11.734Z,11.10
2019-02-17T17:16:41.662Z,11.00
2019-02-17T17:19:11.294Z,11.00
2019-02-17T17:21:41.006Z,11.00
2019-02-17T17:24:10.941Z,10.90
2019-02-17T17:26:40.552Z,10.90
2019-02-17T17:29:10.201Z,10.90
2019-02-17T17:31:40.074Z,10.80
2019-02-17T17:34:09.697Z,10.80
2019-02-17T17:36:39.473Z,10.70
2019-02-17T17:39:09.339Z,10.70
2019-02-17T17:41:39.936Z,10.60
2019-02-17T17:44:09.593Z,10.60
2019-02-17T17:46:39.209Z,10.60
2019-02-17T17:49:17.204Z,10.50
2019-02-17T17:51:40.501Z,10.50
2019-02-17T17:54:10.213Z,10.40
2019-02-17T17:56:39.834Z,10.40
2019-02-17T17:59:09.468Z,10.40
2019-02-17T18:01:39.186Z,10.40
2019-02-17T18:04:08.841Z,10.50
2019-02-17T18:06:38.586Z,10.50
2019-02-17T18:09:09.289Z,10.50
2019-02-17T18:11:38.996Z,10.40
2019-02-17T18:14:08.689Z,10.40
2019-02-17T18:16:38.325Z,10.40
2019-02-17T18:19:08.274Z,10.40
2019-02-17T18:21:37.974Z,10.30
2019-02-17T18:24:07.964Z,10.30
2019-02-17T18:26:37.605Z,10.20
2019-02-17T18:29:07.222Z,10.20
2019-02-17T18:31:37.181Z,10.20
2019-02-17T18:34:06.982Z,10.20
2019-02-17T18:36:36.649Z,10.20
2019-02-17T18:39:06.876Z,10.20
2019-02-17T18:41:37.914Z,10.10
2019-02-17T18:44:07.564Z,10.10
2019-02-17T18:46:37.541Z,10.10
2019-02-17T18:49:07.162Z,10.10
2019-02-17T18:51:37.907Z,10.10
2019-02-17T18:54:07.651Z,10.10
2019-02-17T18:56:37.298Z,10.10
2019-02-17T18:59:07.518Z,10.00
2019-02-17T19:01:37.460Z,10.00
2019-02-17T19:04:07.294Z,10.00
2019-02-17T19:06:36.982Z,9.90
2019-02-17T19:09:07.644Z,9.90
2019-02-17T19:11:37.800Z,9.90
2019-02-17T19:14:07.476Z,9.90
2019-02-17T19:16:37.102Z,9.90
2019-02-17T19:19:06.721Z,9.80
2019-02-17T19:21:36.378Z,9.80
2019-02-17T19:24:06.421Z,9.80
2019-02-17T19:26:36.151Z,9.70
2019-02-17T19:29:05.763Z,9.70
2019-02-17T19:31:35.713Z,9.70
2019-02-17T19:34:05.398Z,9.70
2019-02-17T19:36:35.030Z,9.70
2019-02-17T19:39:06.110Z,9.70
2019-02-17T19:41:40.464Z,9.70
2019-02-17T19:44:10.083Z,9.70
2019-02-17T19:46:39.725Z,9.60
2019-02-17T19:49:09.344Z,9.90
2019-02-17T19:51:39.326Z,9.80
2019-02-17T19:54:08.941Z,9.70
2019-02-17T19:56:39.841Z,9.60
2019-02-17T19:59:09.716Z,9.50
2019-02-17T20:01:39.670Z,9.50
2019-02-17T20:04:24.513Z,9.50
2019-02-17T20:06:54.445Z,9.50
2019-02-17T20:09:24.400Z,9.40
2019-02-17T20:11:54.018Z,9.40
2019-02-17T20:14:23.745Z,9.40
2019-02-17T20:16:53.395Z,9.40
2019-02-17T20:19:23.023Z,9.40
2019-02-17T20:21:52.636Z,9.40
2019-02-17T20:24:22.262Z,9.40
2019-02-17T20:26:51.897Z,9.30
2019-02-17T20:29:21.535Z,9.30
2019-02-17T20:31:51.149Z,9.20
2019-02-17T20:34:21.058Z,9.20
2019-02-17T20:36:50.733Z,9.10
2019-02-17T20:39:20.358Z,9.10
2019-02-17T20:41:49.977Z,9.10
2019-02-17T20:44:20.577Z,9.00
2019-02-17T20:46:50.610Z,9.00
2019-02-17T20:49:20.216Z,9.00
2019-02-17T20:51:50.153Z,9.00
2019-02-17T20:54:19.778Z,9.00
2019-02-17T20:56:49.403Z,8.90
2019-02-17T20:59:19.020Z,8.90
2019-02-17T21:01:48.871Z,8.80
2019-02-17T21:04:37.965Z,8.80
2019-02-17T21:07:09.276Z,8.80
2019-02-17T21:09:38.910Z,8.70
2019-02-17T21:12:09.845Z,8.70
2019-02-17T21:14:39.472Z,8.60
2019-02-17T21:17:09.594Z,8.60
2019-02-17T21:19:39.329Z,8.60
2019-02-17T21:22:09.378Z,8.60
2019-02-17T21:24:39.059Z,8.50
2019-02-17T21:27:08.677Z,8.40
2019-02-17T21:29:38.305Z,8.30
2019-02-17T21:32:07.968Z,8.20
2019-02-17T21:34:37.764Z,8.10
2019-02-17T21:37:07.688Z,8.10
2019-02-17T21:39:37.570Z,8.00
2019-02-17T21:42:07.340Z,7.90
2019-02-17T21:44:36.985Z,7.90
2019-02-17T21:47:06.684Z,7.80
2019-02-17T21:49:36.359Z,7.80
2019-02-17T21:52:05.978Z,7.80
2019-02-17T21:54:35.591Z,7.80
2019-02-17T21:57:05.281Z,7.70
2019-02-17T21:59:35.252Z,7.70
2019-02-17T22:02:04.880Z,7.80
2019-02-17T22:04:35.864Z,7.70
2019-02-17T22:07:05.777Z,7.70
2019-02-17T22:09:35.911Z,7.70
2019-02-17T22:12:05.516Z,7.70
2019-02-17T22:14:35.365Z,7.70
2019-02-17T22:17:04.994Z,7.60
2019-02-17T22:19:34.606Z,7.60
2019-02-17T22:22:04.301Z,7.60
2019-02-17T22:24:33.908Z,7.50
2019-02-17T22:27:04.124Z,7.50
2019-02-17T22:29:33.747Z,7.50
2019-02-17T22:32:03.694Z,7.50
2019-02-17T22:34:33.358Z,7.50
2019-02-17T22:37:03.014Z,7.50
2019-02-17T22:39:32.705Z,7.50
2019-02-17T22:42:02.410Z,7.50
2019-02-17T22:44:32.288Z,7.50
2019-02-17T22:47:01.919Z,7.40
2019-02-17T22:49:31.534Z,7.40
2019-02-17T22:52:01.769Z,7.40
2019-02-17T22:54:32.645Z,7.30
2019-02-17T22:57:02.658Z,7.20
2019-02-17T22:59:32.904Z,7.20
2019-02-17T23:02:02.837Z,7.20
2019-02-17T23:04:32.730Z,7.20
2019-02-17T23:07:02.425Z,7.20
2019-02-17T23:09:33.118Z,7.10
2019-02-17T23:12:02.744Z,7.10
2019-02-17T23:14:32.425Z,7.10
2019-02-17T23:17:02.879Z,7.00
2019-02-17T23:19:32.494Z,6.90
2019-02-17T23:22:02.430Z,6.90
2019-02-17T23:24:32.193Z,6.90
2019-02-17T23:27:04.101Z,6.80
2019-02-17T23:29:33.137Z,6.80
2019-02-17T23:32:02.806Z,6.80
2019-02-17T23:34:32.705Z,6.80
2019-02-17T23:37:04.285Z,6.70
2019-02-17T23:39:33.723Z,6.80
2019-02-17T23:42:03.429Z,6.80
2019-02-17T23:44:33.113Z,6.80
2019-02-17T23:47:02.741Z,6.80
2019-02-17T23:49:32.377Z,6.70
2019-02-17T23:52:02.101Z,6.70
2019-02-17T23:54:32.033Z,6.60
2019-02-17T23:57:01.685Z,6.50
2019-02-17T23:59:31.665Z,6.50
